This is the latest recevied weather packets stored in our database for station/object DL4LAM-15. If no packets are shown the sender has not sent any weather packets the latest 10 day(s).
| Time | Temp. | Humidity | Pressure | Rain* | Wind** | Luminosity | Snow |
|---|---|---|---|---|---|---|---|
| 1777529716 | 10.56° C | 58% | 1032 hPa | 0 mm | - | - | - |
| 1777529116 | 10° C | 59% | 1032 hPa | 0 mm | - | - | - |
| 1777528516 | 9.44° C | 61% | 1031.9 hPa | 0 mm | - | - | - |
| 1777528216 | 9.44° C | 63% | 1031.9 hPa | 0 mm | - | - | - |
| 1777527016 | 8.33° C | 70% | 1031.9 hPa | 0 mm | - | - | - |
| 1777524616 | 5° C | 86% | 1031.4 hPa | 0 mm | - | - | - |
| 1777524016 | 3.89° C | 88% | 1031.3 hPa | 0 mm | - | - | - |
| 1777523717 | 3.89° C | 87% | 1031.3 hPa | 0 mm | - | - | - |
| 1777523416 | 3.89° C | 86% | 1031.2 hPa | 0 mm | - | - | - |
| 1777519216 | 3.89° C | 84% | 1030.9 hPa | 0 mm | - | - | - |
| 1777518616 | 4.44° C | 83% | 1030.9 hPa | 0 mm | - | - | - |
| 1777514116 | 5° C | 76% | 1030.7 hPa | 0 mm | - | - | - |
| 1777513516 | 5.56° C | 75% | 1030.7 hPa | 0 mm | - | - | - |
| 1777512916 | 5.56° C | 74% | 1030.6 hPa | 0 mm | - | - | - |
| 1777509316 | 6.11° C | 70% | 1030.3 hPa | 0 mm | - | - | - |
| 1777507216 | 6.67° C | 71% | 1030.2 hPa | 0 mm | - | - | - |
| 1777497917 | 11.11° C | 52% | 1029.6 hPa | 0 mm | - | - | - |
| 1777494017 | 12.22° C | 46% | 1029.2 hPa | 0 mm | - | - | - |
| 1777493417 | 12.22° C | 46% | 1029.2 hPa | 0 mm | - | - | - |
| 1777488617 | 13.89° C | 40% | 1028.5 hPa | 0 mm | - | - | - |
| 1777485917 | 15° C | 37% | 1028.1 hPa | 0 mm | - | - | - |
| 1777485617 | 15° C | 37% | 1028.1 hPa | 0 mm | - | - | - |
| 1777485317 | 15° C | 37% | 1028.1 hPa | 0 mm | - | - | - |
| 1777485017 | 15° C | 37% | 1028 hPa | 0 mm | - | - | - |
| 1777482917 | 15.56° C | 35% | 1027.8 hPa | 0 mm | - | - | - |
* Rain latest hour (hover to see other rain measurements)
** Current wind speed in m/s (hover to see current wind gust speed)